createdAt,value
2023-03-06T00:00:21.441Z,3.40
2023-03-06T00:01:25.722Z,2.88
2023-03-06T00:02:29.685Z,3.08
2023-03-06T00:03:34.491Z,2.95
2023-03-06T00:04:38.779Z,2.63
2023-03-06T00:05:42.670Z,2.70
2023-03-06T00:06:47.210Z,2.50
2023-03-06T00:07:52.182Z,3.25
2023-03-06T00:08:56.228Z,2.92
2023-03-06T00:09:59.807Z,3.20
2023-03-06T00:11:03.712Z,3.10
2023-03-06T00:12:08.649Z,3.08
2023-03-06T00:13:16.660Z,3.83
2023-03-06T00:14:20.811Z,2.88
2023-03-06T00:15:26.751Z,4.28
2023-03-06T00:16:30.854Z,3.67
2023-03-06T00:17:34.838Z,3.85
2023-03-06T00:18:38.863Z,3.58
2023-03-06T00:19:42.782Z,2.90
2023-03-06T00:20:46.561Z,2.90
2023-03-06T00:21:51.201Z,3.53
2023-03-06T00:22:57.743Z,3.92
2023-03-06T00:24:01.783Z,3.00
2023-03-06T00:25:07.672Z,3.95
2023-03-06T00:26:12.572Z,3.40
2023-03-06T00:27:16.970Z,3.90
2023-03-06T00:28:21.261Z,3.40
2023-03-06T00:29:26.576Z,3.42
2023-03-06T00:30:31.803Z,3.58
2023-03-06T00:31:39.107Z,3.22
2023-03-06T00:32:43.944Z,3.85
2023-03-06T00:33:47.878Z,2.80
2023-03-06T00:34:56.154Z,4.30
2023-03-06T00:36:07.449Z,3.58
2023-03-06T00:37:11.112Z,2.92
2023-03-06T00:38:15.029Z,2.97
2023-03-06T00:39:19.367Z,2.97
2023-03-06T00:40:27.203Z,4.07
2023-03-06T00:41:31.579Z,3.47
2023-03-06T00:42:35.406Z,3.22
2023-03-06T00:43:39.755Z,3.65
2023-03-06T00:44:47.266Z,4.30
2023-03-06T00:45:51.678Z,3.88
2023-03-06T00:46:55.405Z,3.95
2023-03-06T00:47:59.142Z,3.08
2023-03-06T00:49:03.031Z,3.65
2023-03-06T00:50:09.201Z,3.67
2023-03-06T00:51:14.025Z,3.47
2023-03-06T00:52:18.132Z,3.58
2023-03-06T00:53:21.807Z,3.33
2023-03-06T00:54:25.451Z,4.90
2023-03-06T00:55:31.232Z,3.65
2023-03-06T00:56:35.000Z,4.30
2023-03-06T00:57:39.039Z,3.13
2023-03-06T00:58:42.914Z,4.80
2023-03-06T00:59:46.786Z,3.75
2023-03-06T01:00:50.715Z,3.35
2023-03-06T01:01:55.551Z,3.42
2023-03-06T01:02:59.373Z,4.00
2023-03-06T01:04:04.642Z,3.95
2023-03-06T01:05:09.903Z,4.55
2023-03-06T01:06:13.988Z,3.35
2023-03-06T01:07:17.908Z,4.60
2023-03-06T01:08:21.905Z,4.28
2023-03-06T01:09:26.138Z,3.72
2023-03-06T01:10:30.069Z,4.25
2023-03-06T01:11:33.990Z,3.95
2023-03-06T01:12:37.802Z,4.15
2023-03-06T01:13:41.901Z,4.88
2023-03-06T01:14:45.761Z,3.03
2023-03-06T01:15:50.123Z,4.40
2023-03-06T01:16:54.217Z,4.82
2023-03-06T01:17:58.832Z,4.10
2023-03-06T01:19:03.202Z,3.97
2023-03-06T01:20:08.363Z,3.90
2023-03-06T01:21:13.245Z,3.72
2023-03-06T01:22:17.271Z,4.40
2023-03-06T01:23:21.042Z,5.65
2023-03-06T01:24:25.996Z,4.05
2023-03-06T01:25:29.804Z,4.05
2023-03-06T01:26:34.649Z,4.60
2023-03-06T01:27:38.533Z,4.10
2023-03-06T01:28:42.633Z,3.25
2023-03-06T01:29:46.671Z,3.75
2023-03-06T01:30:50.628Z,4.65
2023-03-06T01:31:54.398Z,4.18
2023-03-06T01:32:59.851Z,4.55
2023-03-06T01:34:04.085Z,4.88
2023-03-06T01:35:08.684Z,3.03
2023-03-06T01:36:13.640Z,4.30
2023-03-06T01:37:17.675Z,3.42
2023-03-06T01:38:22.203Z,4.05
2023-03-06T01:39:26.602Z,4.82
2023-03-06T01:40:35.027Z,3.30
2023-03-06T01:41:39.097Z,4.55
2023-03-06T01:42:43.380Z,4.10
2023-03-06T01:43:47.496Z,3.88
2023-03-06T01:45:17.428Z,3.72
2023-03-06T01:46:33.609Z,4.20
2023-03-06T01:47:37.419Z,3.85
2023-03-06T01:48:41.468Z,4.78
2023-03-06T01:49:45.093Z,4.03
2023-03-06T01:50:52.815Z,3.75
2023-03-06T01:52:04.093Z,4.03
2023-03-06T01:53:08.178Z,4.00
2023-03-06T01:54:28.797Z,4.45
2023-03-06T01:55:36.209Z,3.20
2023-03-06T01:56:44.531Z,4.28
2023-03-06T01:57:54.974Z,4.18
2023-03-06T01:58:59.669Z,3.90
2023-03-06T02:00:12.983Z,3.90
2023-03-06T02:01:19.365Z,4.60
2023-03-06T02:02:23.417Z,3.88
2023-03-06T02:03:30.235Z,3.55
2023-03-06T02:04:37.498Z,3.50
2023-03-06T02:05:45.002Z,4.80
2023-03-06T02:06:49.815Z,3.88
2023-03-06T02:07:54.983Z,4.57
2023-03-06T02:09:03.747Z,4.07
2023-03-06T02:10:09.568Z,4.30
2023-03-06T02:11:23.610Z,3.83
2023-03-06T02:12:28.632Z,3.20
2023-03-06T02:13:32.897Z,3.80
2023-03-06T02:14:38.532Z,4.03
2023-03-06T02:15:42.315Z,4.20
2023-03-06T02:16:46.376Z,3.33
2023-03-06T02:17:52.934Z,3.58
2023-03-06T02:19:00.549Z,3.50
2023-03-06T02:20:40.179Z,4.05
2023-03-06T02:21:43.938Z,4.43
2023-03-06T02:23:34.840Z,3.85
2023-03-06T02:24:56.908Z,4.13
2023-03-06T02:26:02.590Z,4.60
2023-03-06T02:27:08.435Z,3.60
2023-03-06T02:28:19.593Z,4.07
2023-03-06T02:29:28.390Z,4.13
2023-03-06T02:30:32.898Z,4.45
2023-03-06T02:31:36.693Z,3.88
2023-03-06T02:32:40.782Z,4.28
2023-03-06T02:33:45.129Z,4.00
2023-03-06T02:34:53.775Z,4.45
2023-03-06T02:36:14.673Z,4.75
2023-03-06T02:37:19.201Z,4.65
2023-03-06T02:38:29.405Z,5.30
2023-03-06T02:39:39.625Z,4.78
2023-03-06T02:40:47.909Z,5.88
2023-03-06T02:41:51.917Z,4.70
2023-03-06T02:42:58.401Z,4.47
2023-03-06T02:44:02.740Z,5.93
2023-03-06T02:45:13.030Z,4.40
2023-03-06T02:46:20.417Z,3.92
2023-03-06T02:47:24.113Z,4.85
2023-03-06T02:48:27.734Z,4.18
2023-03-06T02:49:31.742Z,5.10
2023-03-06T02:50:36.223Z,3.92
2023-03-06T02:51:40.020Z,4.38
2023-03-06T02:52:43.784Z,5.18
2023-03-06T02:53:47.422Z,4.50
2023-03-06T02:54:51.102Z,4.55
2023-03-06T02:55:55.121Z,5.15
2023-03-06T02:56:58.902Z,4.15
2023-03-06T02:58:04.229Z,3.85
2023-03-06T02:59:08.266Z,5.18
2023-03-06T03:00:14.351Z,4.38
2023-03-06T12:16:09.676Z,1.70
2023-03-06T12:17:27.401Z,2.67
2023-03-06T12:19:15.546Z,1.90
2023-03-06T12:20:46.382Z,1.73
2023-03-06T12:22:32.454Z,2.45
2023-03-06T12:24:10.041Z,1.85
2023-03-06T12:25:36.908Z,2.10
2023-03-06T12:27:07.873Z,2.08
2023-03-06T12:28:26.651Z,1.90
2023-03-06T12:30:36.389Z,2.72
2023-03-06T12:32:08.846Z,2.28
2023-03-06T12:33:32.295Z,2.95
2023-03-06T12:35:05.873Z,2.13
2023-03-06T12:36:30.096Z,2.88
2023-03-06T12:38:10.657Z,3.28
2023-03-06T12:39:44.917Z,1.83
2023-03-06T12:41:14.784Z,2.10
2023-03-06T12:42:49.099Z,2.40
2023-03-06T12:44:10.280Z,2.17
2023-03-06T12:45:37.566Z,1.98
2023-03-06T12:47:04.145Z,2.50
2023-03-06T12:48:22.698Z,2.13
2023-03-06T12:49:32.631Z,1.83
2023-03-06T12:50:38.990Z,1.75
2023-03-06T12:51:45.532Z,2.35
2023-03-06T12:52:52.238Z,3.03
2023-03-06T12:54:00.268Z,2.17
2023-03-06T12:55:08.642Z,2.22
2023-03-06T12:56:18.642Z,2.38
2023-03-06T12:57:26.044Z,2.00
2023-03-06T12:58:30.163Z,2.78
2023-03-06T12:59:37.916Z,1.55
2023-03-06T13:01:04.991Z,2.42
2023-03-06T13:02:25.014Z,2.60
2023-03-06T13:03:56.196Z,2.25
2023-03-06T13:05:24.935Z,2.08
2023-03-06T13:06:50.277Z,1.75
2023-03-06T13:08:11.298Z,2.47
2023-03-06T13:10:12.375Z,2.45
2023-03-06T13:11:38.086Z,2.05
2023-03-06T13:13:00.935Z,1.60
2023-03-06T13:14:54.610Z,2.10
2023-03-06T13:16:10.394Z,3.05
2023-03-06T13:17:23.849Z,2.33
2023-03-06T13:18:50.556Z,2.40
2023-03-06T13:20:35.268Z,2.30
2023-03-06T13:22:02.220Z,1.55
2023-03-06T13:23:33.482Z,2.08
2023-03-06T13:24:38.789Z,2.13
2023-03-06T13:25:51.060Z,1.98
2023-03-06T13:27:12.797Z,2.60
2023-03-06T13:28:50.335Z,1.60
2023-03-06T13:30:42.439Z,2.00
2023-03-06T13:31:47.015Z,1.98
2023-03-06T13:32:53.066Z,1.90
2023-03-06T13:34:36.375Z,2.67
2023-03-06T13:35:47.706Z,1.95
2023-03-06T13:36:52.441Z,2.42
2023-03-06T13:37:57.975Z,2.08
2023-03-06T13:39:14.121Z,2.05
2023-03-06T13:40:38.661Z,1.80
2023-03-06T13:41:59.387Z,2.08
2023-03-06T13:43:19.016Z,1.98
2023-03-06T13:44:25.615Z,1.70
2023-03-06T13:45:44.276Z,1.63
2023-03-06T13:47:00.149Z,1.67
2023-03-06T13:48:30.277Z,2.20
2023-03-06T13:49:31.716Z,2.50
2023-03-06T13:50:47.883Z,2.08
2023-03-06T13:51:54.609Z,1.95
2023-03-06T13:53:46.173Z,1.73
2023-03-06T13:55:30.638Z,2.63
2023-03-06T13:57:08.252Z,2.28
2023-03-06T13:58:37.307Z,2.03
2023-03-06T14:00:16.676Z,1.88
2023-03-06T14:01:58.285Z,1.70
2023-03-06T14:04:00.323Z,2.08
2023-03-06T14:05:15.668Z,2.38
2023-03-06T14:06:52.733Z,2.25
2023-03-06T14:08:13.317Z,2.05
2023-03-06T14:09:42.621Z,1.98
2023-03-06T14:11:19.429Z,2.45
2023-03-06T14:12:34.178Z,1.90
2023-03-06T14:13:50.994Z,1.90
2023-03-06T14:15:17.552Z,1.88
2023-03-06T14:16:49.057Z,1.88
2023-03-06T14:18:01.725Z,1.75
2023-03-06T14:19:08.686Z,3.55
2023-03-06T14:20:22.094Z,1.98
2023-03-06T14:21:42.480Z,2.70
2023-03-06T14:22:46.490Z,1.70
2023-03-06T14:24:03.162Z,2.03
2023-03-06T14:25:31.921Z,1.80
2023-03-06T14:26:50.056Z,1.88
2023-03-06T14:27:58.172Z,2.25
2023-03-06T14:29:06.095Z,1.83
2023-03-06T14:30:21.340Z,2.03
2023-03-06T14:31:37.807Z,2.50
2023-03-06T14:32:43.748Z,2.08
2023-03-06T14:33:58.740Z,1.52
2023-03-06T14:35:02.957Z,2.05
2023-03-06T14:36:14.657Z,2.20
2023-03-06T14:37:25.343Z,2.95
2023-03-06T14:38:42.909Z,2.50
2023-03-06T14:39:47.038Z,2.13
2023-03-06T14:40:52.533Z,2.22
2023-03-06T14:42:25.342Z,1.90
2023-03-06T14:43:29.132Z,2.30
2023-03-06T14:44:33.433Z,2.50
2023-03-06T14:45:37.386Z,1.92
2023-03-06T14:46:41.347Z,2.35
2023-03-06T14:47:53.382Z,1.90
2023-03-06T14:49:00.239Z,1.90
2023-03-06T14:50:29.756Z,1.80
2023-03-06T14:51:46.358Z,2.33
2023-03-06T14:53:18.356Z,2.75
2023-03-06T14:54:34.959Z,1.80
2023-03-06T14:55:45.115Z,2.10
2023-03-06T14:56:54.863Z,2.30
2023-03-06T14:58:24.856Z,3.08
2023-03-06T14:59:39.331Z,2.90
2023-03-06T15:00:50.133Z,2.50
2023-03-06T15:02:06.071Z,2.00
2023-03-06T15:03:28.016Z,1.92
2023-03-06T15:05:12.397Z,2.75
2023-03-06T15:06:25.863Z,2.70
2023-03-06T15:07:33.563Z,2.05
2023-03-06T15:08:40.643Z,1.90
2023-03-06T15:09:49.808Z,1.83
2023-03-06T15:11:20.329Z,2.20
2023-03-06T15:12:24.589Z,2.13
2023-03-06T15:13:32.846Z,1.80
2023-03-06T15:14:42.979Z,1.92
2023-03-06T15:16:11.753Z,1.75
2023-03-06T15:17:19.183Z,1.50
2023-03-06T15:19:01.935Z,1.58
2023-03-06T15:20:28.168Z,1.60
2023-03-06T15:21:39.273Z,1.98
2023-03-06T15:22:44.219Z,2.10
2023-03-06T15:23:53.920Z,2.05
2023-03-06T15:25:21.727Z,1.92
2023-03-06T15:26:37.386Z,1.75
2023-03-06T15:27:47.934Z,1.60
2023-03-06T15:29:09.469Z,3.00
2023-03-06T15:30:41.222Z,1.50
2023-03-06T15:31:46.537Z,1.60
2023-03-06T15:32:51.662Z,1.73
2023-03-06T15:34:20.279Z,2.38
2023-03-06T15:35:37.362Z,2.55
2023-03-06T15:36:58.953Z,1.75
2023-03-06T15:38:04.834Z,1.48
2023-03-06T15:39:41.188Z,2.28
2023-03-06T15:40:59.014Z,2.20
2023-03-06T15:42:26.629Z,1.95
2023-03-06T15:43:40.200Z,2.17
2023-03-06T15:44:56.404Z,2.42
2023-03-06T15:46:05.163Z,2.35
2023-03-06T15:47:14.665Z,1.88
2023-03-06T15:48:19.413Z,2.63
2023-03-06T15:49:23.557Z,2.45
2023-03-06T15:50:29.499Z,1.77
2023-03-06T15:51:34.108Z,2.67
2023-03-06T15:52:37.897Z,3.03
2023-03-06T15:53:43.904Z,2.05
2023-03-06T15:54:47.963Z,2.10
2023-03-06T15:55:53.888Z,1.85
2023-03-06T15:56:57.777Z,1.70
2023-03-06T15:58:03.721Z,2.63
2023-03-06T15:59:33.206Z,2.50
2023-03-06T16:00:41.001Z,1.95
2023-03-06T16:01:45.593Z,2.28
2023-03-06T16:02:49.203Z,1.63
2023-03-06T16:03:53.275Z,2.30
2023-03-06T16:04:57.447Z,1.75
2023-03-06T16:06:01.249Z,2.33
2023-03-06T16:07:06.046Z,1.85
2023-03-06T16:08:15.107Z,2.10
2023-03-06T16:09:18.884Z,1.98
2023-03-06T16:10:27.682Z,2.60
2023-03-06T16:11:43.749Z,1.95
2023-03-06T16:13:03.183Z,2.20
2023-03-06T16:14:23.884Z,2.25
2023-03-06T16:15:29.890Z,2.30
2023-03-06T16:16:39.688Z,1.80
2023-03-06T16:17:43.819Z,1.83
2023-03-06T16:18:47.897Z,1.70
2023-03-06T16:19:52.137Z,2.03
2023-03-06T16:20:55.985Z,2.00
2023-03-06T16:22:00.169Z,2.00
2023-03-06T16:23:11.617Z,1.70
2023-03-06T16:24:35.714Z,1.48
2023-03-06T16:25:47.528Z,2.25
2023-03-06T16:26:56.365Z,2.15
2023-03-06T16:28:00.257Z,2.28
2023-03-06T16:29:04.675Z,1.73
2023-03-06T16:30:20.589Z,2.38
2023-03-06T16:31:24.757Z,1.85
2023-03-06T16:32:28.893Z,1.70
2023-03-06T16:33:32.609Z,1.67
2023-03-06T16:34:36.165Z,2.10
2023-03-06T16:35:41.367Z,2.42
2023-03-06T16:36:45.629Z,2.05
2023-03-06T16:37:49.870Z,2.10
2023-03-06T16:38:54.239Z,2.10
2023-03-06T16:39:58.044Z,2.00
2023-03-06T16:41:02.053Z,2.03
2023-03-06T16:42:13.000Z,2.10
2023-03-06T16:43:17.405Z,1.80
2023-03-06T16:44:21.816Z,1.95
2023-03-06T16:45:28.494Z,1.95
2023-03-06T16:46:41.692Z,2.55
2023-03-06T16:47:48.837Z,2.85
2023-03-06T16:48:53.340Z,2.45
2023-03-06T16:50:02.049Z,2.30
2023-03-06T16:51:16.145Z,2.10
2023-03-06T16:52:20.252Z,2.38
2023-03-06T16:53:24.081Z,2.88
2023-03-06T16:54:27.759Z,2.05
2023-03-06T16:55:32.548Z,1.90
2023-03-06T16:56:36.236Z,2.05
2023-03-06T16:57:40.680Z,2.72
2023-03-06T16:58:45.131Z,1.98
2023-03-06T16:59:49.642Z,2.30
2023-03-06T17:00:54.739Z,2.13
2023-03-06T17:01:58.606Z,1.98
2023-03-06T17:03:02.988Z,2.38
2023-03-06T17:04:08.072Z,2.45
2023-03-06T17:05:13.334Z,1.83
2023-03-06T17:06:21.348Z,2.85
2023-03-06T17:07:25.336Z,1.83
2023-03-06T17:08:30.056Z,2.67
2023-03-06T17:09:33.580Z,2.40
2023-03-06T17:10:42.100Z,2.45
2023-03-06T17:11:46.976Z,2.47
2023-03-06T17:12:53.034Z,2.20
2023-03-06T17:13:56.920Z,2.78
2023-03-06T17:15:00.961Z,3.38
2023-03-06T17:16:08.615Z,2.78
2023-03-06T17:17:12.531Z,2.45
2023-03-06T17:18:16.197Z,3.67
2023-03-06T17:19:21.057Z,3.15
2023-03-06T17:20:24.800Z,3.05
2023-03-06T17:21:30.571Z,3.13
2023-03-06T17:22:36.468Z,2.58
2023-03-06T17:23:41.018Z,3.08
2023-03-06T17:24:52.290Z,2.60
2023-03-06T17:26:15.789Z,3.25
2023-03-06T17:27:22.713Z,2.42
2023-03-06T17:28:28.334Z,2.58
2023-03-06T17:29:32.854Z,2.83
2023-03-06T17:30:37.077Z,2.95
2023-03-06T17:31:41.717Z,2.45
2023-03-06T17:32:45.880Z,2.47
2023-03-06T17:33:54.418Z,2.78
2023-03-06T17:34:59.215Z,2.95
2023-03-06T17:36:03.120Z,2.47
2023-03-06T17:37:11.561Z,2.80
2023-03-06T17:38:19.640Z,2.85
2023-03-06T17:39:24.030Z,2.53
2023-03-06T17:40:28.182Z,2.35
2023-03-06T17:41:34.178Z,3.17
2023-03-06T17:42:38.018Z,2.15
2023-03-06T17:43:42.277Z,1.95
2023-03-06T17:44:46.135Z,3.90
2023-03-06T17:45:50.077Z,3.17
2023-03-06T17:46:54.046Z,2.88
2023-03-06T17:48:00.545Z,2.67
2023-03-06T17:49:04.991Z,2.13
2023-03-06T17:50:09.982Z,2.25
2023-03-06T17:51:14.139Z,2.85
2023-03-06T17:52:17.867Z,3.00
2023-03-06T17:53:23.651Z,2.75
2023-03-06T17:54:30.347Z,2.58
2023-03-06T17:55:34.179Z,2.45
2023-03-06T17:56:38.407Z,2.72
2023-03-06T17:57:42.273Z,2.90
2023-03-06T17:58:45.858Z,2.60
2023-03-06T17:59:49.910Z,4.07
2023-03-06T18:00:54.374Z,2.75
2023-03-06T18:01:59.586Z,3.03
2023-03-06T18:03:03.939Z,2.95
2023-03-06T18:04:07.865Z,4.13
2023-03-06T18:05:12.633Z,2.78
2023-03-06T18:06:18.329Z,2.88
2023-03-06T18:07:22.427Z,2.42
2023-03-06T18:08:27.643Z,2.30
2023-03-06T18:09:32.489Z,2.30
2023-03-06T18:10:43.559Z,3.35
2023-03-06T18:11:47.150Z,3.45
2023-03-06T18:12:51.288Z,1.90
2023-03-06T18:13:55.426Z,2.90
2023-03-06T18:14:59.490Z,2.95
2023-03-06T18:16:03.991Z,3.20
2023-03-06T18:17:08.322Z,2.92
2023-03-06T18:18:11.923Z,2.70
2023-03-06T18:19:16.602Z,2.75
2023-03-06T18:20:20.819Z,3.05
2023-03-06T18:21:25.679Z,2.83
2023-03-06T18:22:29.393Z,2.70
2023-03-06T18:23:33.372Z,2.80
2023-03-06T18:24:37.617Z,3.60
2023-03-06T18:25:41.690Z,3.05
2023-03-06T18:26:45.911Z,3.35
2023-03-06T18:27:49.768Z,2.55
2023-03-06T18:29:06.760Z,2.80
2023-03-06T18:30:11.818Z,2.58
2023-03-06T18:31:25.492Z,2.63
2023-03-06T18:32:29.404Z,3.60
2023-03-06T18:33:33.206Z,3.35
2023-03-06T18:34:37.356Z,3.42
2023-03-06T18:35:44.339Z,2.97
2023-03-06T18:36:52.763Z,2.97
2023-03-06T18:37:56.590Z,3.33
2023-03-06T18:39:04.313Z,3.00
2023-03-06T18:40:11.262Z,2.53
2023-03-06T18:41:24.805Z,3.95
2023-03-06T18:42:28.883Z,2.97
2023-03-06T18:43:32.605Z,2.75
2023-03-06T18:44:36.509Z,2.80
2023-03-06T18:45:44.363Z,3.67
2023-03-06T18:46:48.897Z,2.63
2023-03-06T18:47:55.383Z,3.55
2023-03-06T18:49:00.137Z,3.53
2023-03-06T18:50:10.493Z,3.58
2023-03-06T18:51:16.592Z,3.88
2023-03-06T18:52:20.657Z,2.95
2023-03-06T18:53:24.471Z,3.80
2023-03-06T18:54:29.929Z,2.92
2023-03-06T18:55:36.358Z,3.22
2023-03-06T18:56:44.491Z,3.58
2023-03-06T18:57:48.104Z,3.25
2023-03-06T18:59:04.833Z,3.55
2023-03-06T19:00:10.539Z,3.38
2023-03-06T19:01:17.427Z,3.22
2023-03-06T19:02:21.436Z,3.90
2023-03-06T19:03:25.407Z,3.60
2023-03-06T19:04:29.094Z,2.92
2023-03-06T19:05:43.170Z,4.90
2023-03-06T19:06:47.273Z,4.53
2023-03-06T19:07:51.477Z,3.85
2023-03-06T19:09:04.110Z,2.97
2023-03-06T19:10:09.820Z,3.35
2023-03-06T19:11:18.338Z,3.33
2023-03-06T19:12:23.064Z,3.20
2023-03-06T19:13:29.351Z,3.30
2023-03-06T19:14:36.494Z,3.42
2023-03-06T19:15:46.666Z,3.78
2023-03-06T19:16:51.024Z,3.13
2023-03-06T19:17:55.801Z,3.58
2023-03-06T19:19:02.940Z,3.92
2023-03-06T19:20:08.359Z,3.53
2023-03-06T19:21:20.037Z,3.65
2023-03-06T19:22:24.260Z,3.45
2023-03-06T19:23:28.123Z,3.97
2023-03-06T19:24:35.103Z,3.08
2023-03-06T19:25:43.325Z,3.40
2023-03-06T19:26:52.582Z,3.25
2023-03-06T19:28:00.280Z,3.80
2023-03-06T19:29:11.899Z,3.30
2023-03-06T19:30:17.356Z,3.95
2023-03-06T19:31:27.581Z,3.83
2023-03-06T19:32:34.336Z,4.75
2023-03-06T19:33:46.050Z,3.97
2023-03-06T19:34:50.855Z,3.35
2023-03-06T19:35:56.233Z,3.80
2023-03-06T19:37:04.656Z,4.28
2023-03-06T19:38:10.601Z,3.25
2023-03-06T19:39:20.547Z,4.55
2023-03-06T19:40:31.750Z,2.83
2023-03-06T19:41:35.915Z,3.60
2023-03-06T19:42:43.062Z,3.15
2023-03-06T19:43:53.115Z,3.17
2023-03-06T19:44:58.695Z,4.20
2023-03-06T19:46:03.806Z,3.50
2023-03-06T19:47:07.854Z,3.92
2023-03-06T19:48:13.730Z,4.10
2023-03-06T19:49:22.371Z,5.63
2023-03-06T19:50:30.900Z,4.20
2023-03-06T19:51:35.140Z,3.70
2023-03-06T19:52:39.236Z,4.78
2023-03-06T19:53:44.820Z,3.42
2023-03-06T19:54:49.055Z,3.35
2023-03-06T19:55:53.303Z,3.88
2023-03-06T19:56:57.916Z,3.20
2023-03-06T19:58:04.513Z,3.78
2023-03-06T19:59:09.227Z,4.43
2023-03-06T20:00:17.959Z,4.25
2023-03-06T20:01:37.781Z,4.30
2023-03-06T20:02:45.030Z,3.83
2023-03-06T20:03:51.040Z,4.18
2023-03-06T20:04:55.590Z,6.25
2023-03-06T20:05:59.445Z,4.07
2023-03-06T20:07:05.487Z,3.72
2023-03-06T20:08:11.194Z,4.90
2023-03-06T20:09:14.901Z,4.05
2023-03-06T20:10:19.495Z,3.83
2023-03-06T20:11:31.577Z,3.92
2023-03-06T20:12:36.234Z,3.38
2023-03-06T20:13:46.929Z,4.10
2023-03-06T20:14:51.642Z,4.70
2023-03-06T20:15:56.304Z,3.67
2023-03-06T20:17:00.059Z,4.38
2023-03-06T20:18:06.404Z,4.57
2023-03-06T20:19:14.407Z,3.97
2023-03-06T20:20:19.272Z,3.95
2023-03-06T20:21:23.538Z,4.55
2023-03-06T20:22:30.832Z,3.90
2023-03-06T20:23:35.208Z,5.35
2023-03-06T20:24:39.165Z,4.22
2023-03-06T20:25:43.120Z,5.43
2023-03-06T20:26:52.673Z,4.15
2023-03-06T20:27:56.428Z,4.47
2023-03-06T20:29:01.161Z,4.13
2023-03-06T20:30:09.786Z,3.60
2023-03-06T20:31:18.128Z,4.20
2023-03-06T20:32:22.694Z,4.70
2023-03-06T20:33:27.447Z,3.63
2023-03-06T20:34:31.331Z,4.05
2023-03-06T20:35:39.679Z,5.72
2023-03-06T20:36:43.431Z,4.00
2023-03-06T20:37:48.487Z,4.22
2023-03-06T20:38:52.207Z,5.32
2023-03-06T20:39:56.364Z,4.50
2023-03-06T20:41:00.130Z,4.93
2023-03-06T20:42:07.025Z,4.47
2023-03-06T20:43:11.107Z,5.18
2023-03-06T20:44:19.682Z,4.55
2023-03-06T20:45:24.987Z,4.88
2023-03-06T20:46:29.939Z,3.90
2023-03-06T20:47:33.925Z,4.60
2023-03-06T20:48:39.025Z,5.35
2023-03-06T20:49:43.081Z,5.07
2023-03-06T20:50:47.449Z,5.60
2023-03-06T20:51:51.484Z,5.00
2023-03-06T20:52:58.524Z,4.18
2023-03-06T20:54:03.399Z,5.50
2023-03-06T20:55:08.788Z,6.60
2023-03-06T20:56:19.402Z,4.80
2023-03-06T20:57:23.685Z,5.00
2023-03-06T20:58:30.235Z,4.68
2023-03-06T20:59:33.999Z,5.82
2023-03-06T21:00:39.203Z,4.55
2023-03-06T21:01:45.889Z,5.43
2023-03-06T21:02:49.900Z,4.93
2023-03-06T21:03:54.796Z,5.93
2023-03-06T21:05:01.003Z,4.75
2023-03-06T21:06:07.519Z,5.45
2023-03-06T21:07:16.063Z,5.18
2023-03-06T21:08:23.650Z,5.32
2023-03-06T21:09:27.352Z,4.68
2023-03-06T21:10:31.295Z,5.30
2023-03-06T21:11:35.813Z,5.90
2023-03-06T21:12:40.124Z,5.65
2023-03-06T21:13:44.012Z,5.28
2023-03-06T21:14:47.588Z,6.22
2023-03-06T21:15:51.362Z,5.15
2023-03-06T21:16:55.160Z,4.97
2023-03-06T21:17:59.352Z,5.25
2023-03-06T21:19:03.898Z,4.95
2023-03-06T21:20:11.244Z,6.70
2023-03-06T21:21:22.085Z,7.25
2023-03-06T21:22:26.877Z,6.13
2023-03-06T21:23:31.915Z,6.18
2023-03-06T21:24:36.827Z,5.78
2023-03-06T21:25:52.141Z,6.18
2023-03-06T21:26:56.470Z,5.07
2023-03-06T21:28:00.554Z,6.40
2023-03-06T21:29:05.066Z,5.95
2023-03-06T21:30:10.155Z,6.13
2023-03-06T21:31:18.287Z,4.90
2023-03-06T21:32:23.172Z,6.28
2023-03-06T21:33:29.621Z,5.38
2023-03-06T21:34:33.361Z,6.13
2023-03-06T21:35:45.726Z,5.53
2023-03-06T21:36:53.030Z,5.00
2023-03-06T21:37:56.856Z,7.03
2023-03-06T21:39:00.919Z,5.47
2023-03-06T21:40:08.239Z,5.85
2023-03-06T21:41:24.892Z,6.28
2023-03-06T21:42:29.521Z,6.80
2023-03-06T21:43:33.277Z,6.53
2023-03-06T21:44:37.164Z,6.38
2023-03-06T21:45:46.645Z,6.30
2023-03-06T21:46:50.293Z,6.03
2023-03-06T21:47:54.202Z,5.80
2023-03-06T21:48:59.045Z,6.63
2023-03-06T21:50:03.391Z,6.75
2023-03-06T21:51:15.864Z,6.75
2023-03-06T21:52:19.923Z,7.22
2023-03-06T21:53:23.463Z,5.55
2023-03-06T21:54:29.461Z,5.50
2023-03-06T21:55:33.367Z,7.55
2023-03-06T21:56:37.548Z,8.48
2023-03-06T21:57:41.463Z,7.25
2023-03-06T21:58:48.757Z,7.10
2023-03-06T21:59:52.742Z,7.03
2023-03-06T22:00:57.329Z,6.35
2023-03-06T22:02:01.725Z,8.10
2023-03-06T22:03:06.806Z,7.47
2023-03-06T22:04:10.460Z,7.70
2023-03-06T22:05:15.045Z,6.40
2023-03-06T22:06:23.624Z,7.30
2023-03-06T22:07:28.932Z,5.95
2023-03-06T22:08:32.484Z,6.95
2023-03-06T22:09:37.544Z,7.63
2023-03-06T22:10:42.078Z,6.38
2023-03-06T22:11:46.444Z,5.82
2023-03-06T22:12:50.225Z,7.55
2023-03-06T22:13:54.129Z,6.40
2023-03-06T22:14:58.494Z,6.70
2023-03-06T22:16:02.318Z,6.72
2023-03-06T22:17:06.112Z,7.10
2023-03-06T22:18:15.971Z,7.18
2023-03-06T22:19:20.163Z,6.50
2023-03-06T22:20:23.795Z,9.68
2023-03-06T22:21:27.752Z,7.30
2023-03-06T22:22:33.108Z,8.65
2023-03-06T22:23:37.799Z,7.70
2023-03-06T22:24:41.423Z,6.85
2023-03-06T22:25:45.127Z,7.15
2023-03-06T22:26:48.890Z,7.60
2023-03-06T22:27:52.847Z,6.93
2023-03-06T22:28:57.307Z,8.75
2023-03-06T22:30:00.963Z,7.13
2023-03-06T22:31:18.220Z,7.10
2023-03-06T22:32:22.202Z,7.43
2023-03-06T22:33:26.265Z,7.88
2023-03-06T22:34:30.201Z,6.50
2023-03-06T22:35:34.385Z,7.28
2023-03-06T22:36:38.872Z,6.18
2023-03-06T22:37:42.607Z,6.95
2023-03-06T22:38:48.661Z,7.07
2023-03-06T22:39:52.395Z,6.70
2023-03-06T22:40:59.472Z,7.78
2023-03-06T22:42:03.285Z,7.03
2023-03-06T22:43:07.117Z,7.75
2023-03-06T22:44:18.225Z,7.80
2023-03-06T22:45:22.467Z,7.43
2023-03-06T22:46:27.906Z,6.22
2023-03-06T22:47:31.666Z,6.15
2023-03-06T22:48:35.792Z,5.68
2023-03-06T22:49:40.533Z,6.13
2023-03-06T22:50:44.375Z,6.82
2023-03-06T22:51:48.192Z,6.70
2023-03-06T22:52:51.935Z,6.07
2023-03-06T22:53:55.880Z,6.97
2023-03-06T22:54:59.987Z,6.53
2023-03-06T22:56:11.100Z,8.00
2023-03-06T22:57:14.889Z,7.55
2023-03-06T22:58:19.082Z,6.53
2023-03-06T22:59:22.727Z,6.82
2023-03-06T23:00:26.543Z,7.90
2023-03-06T23:01:35.793Z,7.60
2023-03-06T23:02:39.432Z,6.47
2023-03-06T23:03:51.539Z,7.95
2023-03-06T23:04:55.250Z,8.32
2023-03-06T23:06:02.606Z,7.93
2023-03-06T23:07:06.819Z,7.75
2023-03-06T23:08:10.774Z,6.82
2023-03-06T23:09:21.118Z,6.65
2023-03-06T23:10:27.725Z,6.43
2023-03-06T23:11:32.781Z,6.32
2023-03-06T23:12:37.356Z,7.70
2023-03-06T23:13:41.250Z,8.40
2023-03-06T23:14:49.669Z,7.78
2023-03-06T23:15:53.470Z,6.50
2023-03-06T23:16:57.870Z,7.03
2023-03-06T23:18:01.663Z,8.30
2023-03-06T23:19:06.234Z,7.68
2023-03-06T23:20:11.875Z,7.20
2023-03-06T23:21:18.380Z,6.75
2023-03-06T23:22:22.787Z,7.15
2023-03-06T23:23:27.329Z,7.43
2023-03-06T23:24:32.177Z,6.35
2023-03-06T23:25:36.523Z,7.95
2023-03-06T23:26:40.902Z,6.80
2023-03-06T23:27:44.920Z,8.10
2023-03-06T23:28:49.096Z,6.95
2023-03-06T23:29:55.824Z,7.60
2023-03-06T23:30:59.967Z,7.40
2023-03-06T23:32:04.592Z,6.55
2023-03-06T23:33:09.795Z,7.20
2023-03-06T23:34:13.380Z,8.90
2023-03-06T23:35:17.186Z,8.82
2023-03-06T23:36:21.043Z,8.55
2023-03-06T23:37:24.935Z,6.53
2023-03-06T23:38:30.367Z,6.53
2023-03-06T23:39:34.132Z,6.57
2023-03-06T23:40:38.799Z,8.30
2023-03-06T23:41:43.251Z,8.52
2023-03-06T23:42:46.855Z,7.95
2023-03-06T23:43:54.643Z,8.23
2023-03-06T23:45:00.443Z,6.50
2023-03-06T23:46:07.377Z,8.20
2023-03-06T23:47:11.349Z,8.32
2023-03-06T23:48:15.053Z,7.28
2023-03-06T23:49:21.043Z,6.43
2023-03-06T23:50:26.486Z,8.38
2023-03-06T23:51:30.142Z,7.40
2023-03-06T23:52:34.229Z,8.85
2023-03-06T23:53:38.313Z,8.90
2023-03-06T23:54:42.463Z,9.73
2023-03-06T23:55:49.451Z,7.25
2023-03-06T23:56:53.147Z,8.63
2023-03-06T23:57:56.988Z,9.02
2023-03-06T23:59:00.674Z,8.35
